KRIV/RIV METAR and TAF weather

Enter ICAO airport designator
Station Type Date Time Source
KRIV METAR 2021/10/24 20:58 UTC NOAA

KRIV 242058Z 33006KT 10SM FEW040 SCT250 21/11 A2991 RMK AO2A SLPNO


Station Type Date Time Source
KRIV Decoded METAR 2021/10/24 20:58 UTC NOAA

Riverside / March Air Force Base, CA, United States (KRIV) 33-54N 117-15W 468M
Oct 24, 2021 - 04:58 PM EDT / 2021.10.24 2058 UTC
Wind: from the NNW (330 degrees) at 7 MPH (6 KT):0
Visibility: 10 mile(s):0
Sky conditions: partly cloudy
Temperature: 69 F (21 C)
Dew Point: 51 F (11 C)
Relative Humidity: 52%
Pressure (altimeter): 29.91 in. Hg (1012 hPa)
ob: KRIV 242058Z 33006KT 10SM FEW040 SCT250 21/11 A2991 RMK AO2A SLPNO
cycle: 21

Station Type Date Time Source
KRIV TAF 2021/10/24 20:14 UTC NOAA

TAF KRIV 242000Z 2420/2602 31012KT 9999 FEW035 BKN250 QNH2986INS
BECMG 2501/2502 28006KT 9999 SCT025 BKN250 QNH2993INS
BECMG 2504/2505 18006KT 9999 BKN020 BKN250 QNH2995INS
BECMG 2507/2508 16006KT 9999 BKN010 OVC020 520409 QNH2993INS
BECMG 2514/2515 18009KT 9999 VCSH BKN010 OVC015 520309 QNH2993INS WND 150V230
BECMG 2517/2518 18009KT 8000 -RA BR BKN010 OVC020 520009 QNH2984INS WND 160V250
TEMPO 2519/2601 20012G20KT BKN007 OVC010 TX22/2421Z TN12/2513Z

Example: see airport list